sensor_id;sensor_type;location;lat;lon;timestamp;P1;durP1;ratioP1;P2;durP2;ratioP2
15246;SDS011;7726;48.820;9.248;2023-09-18T00:01:57;2.92;;;2.72;;
15246;SDS011;7726;48.820;9.248;2023-09-18T00:04:24;3.53;;;2.60;;
15246;SDS011;7726;48.820;9.248;2023-09-18T00:06:52;2.90;;;2.70;;
15246;SDS011;7726;48.820;9.248;2023-09-18T00:09:20;3.33;;;2.83;;
15246;SDS011;7726;48.820;9.248;2023-09-18T00:11:47;5.05;;;3.03;;
15246;SDS011;7726;48.820;9.248;2023-09-18T00:14:14;3.60;;;3.00;;
15246;SDS011;7726;48.820;9.248;2023-09-18T00:16:41;4.50;;;3.17;;
15246;SDS011;7726;48.820;9.248;2023-09-18T00:19:09;5.18;;;3.28;;
15246;SDS011;7726;48.820;9.248;2023-09-18T00:21:36;3.35;;;3.15;;
15246;SDS011;7726;48.820;9.248;2023-09-18T00:24:04;3.55;;;3.25;;
15246;SDS011;7726;48.820;9.248;2023-09-18T00:26:34;3.75;;;3.17;;
15246;SDS011;7726;48.820;9.248;2023-09-18T00:29:01;4.65;;;3.63;;
15246;SDS011;7726;48.820;9.248;2023-09-18T00:31:28;3.95;;;3.47;;
15246;SDS011;7726;48.820;9.248;2023-09-18T00:33:56;4.13;;;3.40;;
15246;SDS011;7726;48.820;9.248;2023-09-18T00:36:23;3.42;;;3.13;;
15246;SDS011;7726;48.820;9.248;2023-09-18T00:38:50;4.38;;;3.40;;
15246;SDS011;7726;48.820;9.248;2023-09-18T00:41:17;4.97;;;3.53;;
15246;SDS011;7726;48.820;9.248;2023-09-18T00:43:45;4.82;;;3.58;;
15246;SDS011;7726;48.820;9.248;2023-09-18T00:46:12;3.20;;;3.00;;
15246;SDS011;7726;48.820;9.248;2023-09-18T00:48:40;3.80;;;3.40;;
15246;SDS011;7726;48.820;9.248;2023-09-18T00:51:07;4.25;;;3.40;;
15246;SDS011;7726;48.820;9.248;2023-09-18T00:53:35;3.65;;;3.33;;
15246;SDS011;7726;48.820;9.248;2023-09-18T00:56:04;3.92;;;3.40;;
15246;SDS011;7726;48.820;9.248;2023-09-18T00:58:31;3.40;;;3.10;;
15246;SDS011;7726;48.820;9.248;2023-09-18T01:01:01;4.70;;;3.20;;
15246;SDS011;7726;48.820;9.248;2023-09-18T01:03:28;3.28;;;3.00;;
15246;SDS011;7726;48.820;9.248;2023-09-18T01:05:56;3.38;;;3.03;;
15246;SDS011;7726;48.820;9.248;2023-09-18T01:08:23;4.50;;;3.35;;
15246;SDS011;7726;48.820;9.248;2023-09-18T01:10:53;3.80;;;3.40;;
15246;SDS011;7726;48.820;9.248;2023-09-18T01:13:27;3.55;;;3.25;;
15246;SDS011;7726;48.820;9.248;2023-09-18T01:15:57;4.85;;;3.10;;
15246;SDS011;7726;48.820;9.248;2023-09-18T01:18:27;3.13;;;2.80;;
15246;SDS011;7726;48.820;9.248;2023-09-18T01:20:54;4.95;;;3.13;;
15246;SDS011;7726;48.820;9.248;2023-09-18T01:23:23;3.55;;;3.25;;
15246;SDS011;7726;48.820;9.248;2023-09-18T01:25:50;4.75;;;3.22;;
15246;SDS011;7726;48.820;9.248;2023-09-18T01:28:17;5.65;;;3.00;;
15246;SDS011;7726;48.820;9.248;2023-09-18T01:30:45;3.50;;;3.20;;
15246;SDS011;7726;48.820;9.248;2023-09-18T01:33:12;4.03;;;3.13;;
15246;SDS011;7726;48.820;9.248;2023-09-18T01:35:40;2.67;;;2.47;;
15246;SDS011;7726;48.820;9.248;2023-09-18T01:38:08;3.85;;;3.00;;
15246;SDS011;7726;48.820;9.248;2023-09-18T01:40:38;3.30;;;3.00;;
15246;SDS011;7726;48.820;9.248;2023-09-18T01:43:05;3.42;;;3.13;;
15246;SDS011;7726;48.820;9.248;2023-09-18T01:45:32;6.07;;;2.92;;
15246;SDS011;7726;48.820;9.248;2023-09-18T01:48:00;3.42;;;2.70;;
15246;SDS011;7726;48.820;9.248;2023-09-18T01:50:27;3.72;;;2.78;;
15246;SDS011;7726;48.820;9.248;2023-09-18T01:52:54;4.05;;;3.00;;
15246;SDS011;7726;48.820;9.248;2023-09-18T01:55:21;3.60;;;3.03;;
15246;SDS011;7726;48.820;9.248;2023-09-18T01:57:50;3.35;;;2.80;;
15246;SDS011;7726;48.820;9.248;2023-09-18T02:00:17;3.17;;;2.80;;
15246;SDS011;7726;48.820;9.248;2023-09-18T02:02:46;2.83;;;2.53;;
15246;SDS011;7726;48.820;9.248;2023-09-18T02:05:13;4.47;;;3.00;;
15246;SDS011;7726;48.820;9.248;2023-09-18T02:07:40;2.67;;;2.47;;
15246;SDS011;7726;48.820;9.248;2023-09-18T02:10:07;4.18;;;2.67;;
15246;SDS011;7726;48.820;9.248;2023-09-18T02:12:36;3.13;;;2.78;;
15246;SDS011;7726;48.820;9.248;2023-09-18T02:15:04;5.57;;;2.75;;
15246;SDS011;7726;48.820;9.248;2023-09-18T02:17:32;7.93;;;3.25;;
15246;SDS011;7726;48.820;9.248;2023-09-18T02:19:59;3.58;;;2.85;;
15246;SDS011;7726;48.820;9.248;2023-09-18T02:22:31;3.35;;;2.85;;
15246;SDS011;7726;48.820;9.248;2023-09-18T02:24:58;3.67;;;2.72;;
15246;SDS011;7726;48.820;9.248;2023-09-18T02:27:26;4.25;;;2.72;;
15246;SDS011;7726;48.820;9.248;2023-09-18T02:29:53;8.85;;;2.75;;
15246;SDS011;7726;48.820;9.248;2023-09-18T02:32:22;7.25;;;2.58;;
15246;SDS011;7726;48.820;9.248;2023-09-18T02:34:49;6.10;;;2.80;;
15246;SDS011;7726;48.820;9.248;2023-09-18T02:37:16;8.00;;;2.75;;
15246;SDS011;7726;48.820;9.248;2023-09-18T02:39:43;3.80;;;2.53;;
15246;SDS011;7726;48.820;9.248;2023-09-18T02:42:10;4.10;;;2.70;;
15246;SDS011;7726;48.820;9.248;2023-09-18T02:44:37;5.85;;;2.70;;
15246;SDS011;7726;48.820;9.248;2023-09-18T02:47:04;7.93;;;3.10;;
15246;SDS011;7726;48.820;9.248;2023-09-18T02:49:33;7.78;;;2.80;;
15246;SDS011;7726;48.820;9.248;2023-09-18T02:52:00;4.50;;;2.80;;
15246;SDS011;7726;48.820;9.248;2023-09-18T02:54:28;5.95;;;3.22;;
15246;SDS011;7726;48.820;9.248;2023-09-18T02:56:55;5.20;;;2.92;;
15246;SDS011;7726;48.820;9.248;2023-09-18T02:59:22;4.15;;;2.85;;
15246;SDS011;7726;48.820;9.248;2023-09-18T03:01:49;8.27;;;2.88;;
15246;SDS011;7726;48.820;9.248;2023-09-18T03:04:16;7.70;;;3.17;;
15246;SDS011;7726;48.820;9.248;2023-09-18T03:06:46;9.27;;;2.70;;
15246;SDS011;7726;48.820;9.248;2023-09-18T03:09:14;6.22;;;3.13;;
15246;SDS011;7726;48.820;9.248;2023-09-18T03:11:41;10.27;;;3.10;;
15246;SDS011;7726;48.820;9.248;2023-09-18T03:14:09;6.30;;;3.13;;
15246;SDS011;7726;48.820;9.248;2023-09-18T03:16:36;8.52;;;3.10;;
15246;SDS011;7726;48.820;9.248;2023-09-18T03:19:04;8.18;;;3.10;;
15246;SDS011;7726;48.820;9.248;2023-09-18T03:21:31;6.88;;;2.63;;
15246;SDS011;7726;48.820;9.248;2023-09-18T03:24:01;7.72;;;2.92;;
15246;SDS011;7726;48.820;9.248;2023-09-18T03:26:29;6.57;;;3.00;;
15246;SDS011;7726;48.820;9.248;2023-09-18T03:28:56;9.85;;;2.92;;
15246;SDS011;7726;48.820;9.248;2023-09-18T03:31:23;8.55;;;2.75;;
15246;SDS011;7726;48.820;9.248;2023-09-18T03:33:50;7.00;;;2.80;;
15246;SDS011;7726;48.820;9.248;2023-09-18T03:36:20;8.30;;;3.00;;
15246;SDS011;7726;48.820;9.248;2023-09-18T03:38:48;9.88;;;2.50;;
15246;SDS011;7726;48.820;9.248;2023-09-18T03:41:16;7.07;;;2.55;;
15246;SDS011;7726;48.820;9.248;2023-09-18T03:43:43;7.00;;;2.80;;
15246;SDS011;7726;48.820;9.248;2023-09-18T03:46:11;10.05;;;3.28;;
15246;SDS011;7726;48.820;9.248;2023-09-18T03:48:38;9.80;;;2.58;;
15246;SDS011;7726;48.820;9.248;2023-09-18T03:51:05;8.63;;;3.00;;
15246;SDS011;7726;48.820;9.248;2023-09-18T03:53:33;7.35;;;3.30;;
15246;SDS011;7726;48.820;9.248;2023-09-18T03:56:00;11.82;;;3.92;;
15246;SDS011;7726;48.820;9.248;2023-09-18T03:58:29;7.75;;;3.00;;
15246;SDS011;7726;48.820;9.248;2023-09-18T04:00:56;6.25;;;2.90;;
15246;SDS011;7726;48.820;9.248;2023-09-18T04:03:23;6.32;;;2.67;;
15246;SDS011;7726;48.820;9.248;2023-09-18T04:05:50;7.90;;;2.90;;
15246;SDS011;7726;48.820;9.248;2023-09-18T04:08:17;6.35;;;3.08;;
15246;SDS011;7726;48.820;9.248;2023-09-18T04:10:44;8.25;;;3.38;;
15246;SDS011;7726;48.820;9.248;2023-09-18T04:13:12;8.25;;;3.80;;
15246;SDS011;7726;48.820;9.248;2023-09-18T04:15:40;10.13;;;3.80;;
15246;SDS011;7726;48.820;9.248;2023-09-18T04:18:07;7.20;;;3.70;;
15246;SDS011;7726;48.820;9.248;2023-09-18T04:20:34;6.85;;;3.60;;
15246;SDS011;7726;48.820;9.248;2023-09-18T04:23:19;5.28;;;3.83;;
15246;SDS011;7726;48.820;9.248;2023-09-18T04:25:47;8.20;;;3.60;;
15246;SDS011;7726;48.820;9.248;2023-09-18T04:28:14;9.13;;;3.40;;
15246;SDS011;7726;48.820;9.248;2023-09-18T04:30:42;9.57;;;3.42;;
15246;SDS011;7726;48.820;9.248;2023-09-18T04:33:10;8.50;;;3.80;;
15246;SDS011;7726;48.820;9.248;2023-09-18T04:35:37;7.15;;;3.10;;
15246;SDS011;7726;48.820;9.248;2023-09-18T04:38:05;9.60;;;3.47;;
15246;SDS011;7726;48.820;9.248;2023-09-18T04:40:33;8.60;;;3.63;;
15246;SDS011;7726;48.820;9.248;2023-09-18T04:43:00;8.38;;;3.50;;
15246;SDS011;7726;48.820;9.248;2023-09-18T04:45:29;8.65;;;3.10;;
15246;SDS011;7726;48.820;9.248;2023-09-18T04:47:57;6.70;;;3.33;;
15246;SDS011;7726;48.820;9.248;2023-09-18T04:50:25;6.10;;;2.80;;
15246;SDS011;7726;48.820;9.248;2023-09-18T04:52:52;6.70;;;3.17;;
15246;SDS011;7726;48.820;9.248;2023-09-18T04:55:21;9.45;;;3.63;;
15246;SDS011;7726;48.820;9.248;2023-09-18T04:57:48;6.57;;;3.30;;
15246;SDS011;7726;48.820;9.248;2023-09-18T05:00:15;6.35;;;3.13;;
15246;SDS011;7726;48.820;9.248;2023-09-18T05:02:48;7.07;;;2.90;;
15246;SDS011;7726;48.820;9.248;2023-09-18T05:05:16;5.80;;;3.33;;
15246;SDS011;7726;48.820;9.248;2023-09-18T05:07:44;5.70;;;3.05;;
15246;SDS011;7726;48.820;9.248;2023-09-18T05:10:11;9.50;;;3.13;;
15246;SDS011;7726;48.820;9.248;2023-09-18T05:12:38;6.78;;;2.80;;
15246;SDS011;7726;48.820;9.248;2023-09-18T05:15:06;11.05;;;3.10;;
15246;SDS011;7726;48.820;9.248;2023-09-18T05:17:41;4.18;;;2.50;;
15246;SDS011;7726;48.820;9.248;2023-09-18T05:20:09;6.80;;;2.90;;
15246;SDS011;7726;48.820;9.248;2023-09-18T05:22:39;10.77;;;2.85;;
15246;SDS011;7726;48.820;9.248;2023-09-18T05:25:07;8.00;;;3.08;;
15246;SDS011;7726;48.820;9.248;2023-09-18T05:27:35;6.32;;;2.75;;
15246;SDS011;7726;48.820;9.248;2023-09-18T05:30:09;7.50;;;3.10;;
15246;SDS011;7726;48.820;9.248;2023-09-18T05:32:36;8.40;;;3.40;;
15246;SDS011;7726;48.820;9.248;2023-09-18T05:35:03;7.45;;;3.08;;
15246;SDS011;7726;48.820;9.248;2023-09-18T05:37:31;7.93;;;3.38;;
15246;SDS011;7726;48.820;9.248;2023-09-18T05:40:00;5.95;;;2.65;;
15246;SDS011;7726;48.820;9.248;2023-09-18T05:42:28;7.63;;;3.17;;
15246;SDS011;7726;48.820;9.248;2023-09-18T05:44:56;6.13;;;2.58;;
15246;SDS011;7726;48.820;9.248;2023-09-18T05:47:23;7.03;;;2.33;;
15246;SDS011;7726;48.820;9.248;2023-09-18T05:49:50;5.43;;;3.00;;
15246;SDS011;7726;48.820;9.248;2023-09-18T05:52:18;6.88;;;2.60;;
15246;SDS011;7726;48.820;9.248;2023-09-18T05:54:47;5.78;;;2.60;;
15246;SDS011;7726;48.820;9.248;2023-09-18T05:57:15;8.57;;;2.88;;
15246;SDS011;7726;48.820;9.248;2023-09-18T05:59:43;4.47;;;2.80;;
15246;SDS011;7726;48.820;9.248;2023-09-18T06:02:10;5.10;;;2.53;;
15246;SDS011;7726;48.820;9.248;2023-09-18T06:04:37;4.63;;;2.75;;
15246;SDS011;7726;48.820;9.248;2023-09-18T06:07:04;5.80;;;2.78;;
15246;SDS011;7726;48.820;9.248;2023-09-18T06:09:31;5.40;;;2.47;;
15246;SDS011;7726;48.820;9.248;2023-09-18T06:11:59;4.53;;;2.90;;
15246;SDS011;7726;48.820;9.248;2023-09-18T06:14:28;6.30;;;2.20;;
15246;SDS011;7726;48.820;9.248;2023-09-18T06:16:55;8.82;;;2.70;;
15246;SDS011;7726;48.820;9.248;2023-09-18T06:19:22;5.72;;;2.50;;
15246;SDS011;7726;48.820;9.248;2023-09-18T06:21:49;5.35;;;2.53;;
15246;SDS011;7726;48.820;9.248;2023-09-18T06:24:16;4.38;;;2.70;;
15246;SDS011;7726;48.820;9.248;2023-09-18T06:26:44;7.65;;;2.67;;
15246;SDS011;7726;48.820;9.248;2023-09-18T06:29:11;6.65;;;2.50;;
15246;SDS011;7726;48.820;9.248;2023-09-18T06:31:39;5.97;;;2.72;;
15246;SDS011;7726;48.820;9.248;2023-09-18T06:34:07;6.07;;;2.70;;
15246;SDS011;7726;48.820;9.248;2023-09-18T06:36:34;4.60;;;2.60;;
15246;SDS011;7726;48.820;9.248;2023-09-18T06:39:01;8.02;;;2.55;;
15246;SDS011;7726;48.820;9.248;2023-09-18T06:41:28;8.27;;;2.75;;
15246;SDS011;7726;48.820;9.248;2023-09-18T06:43:55;5.53;;;2.38;;
15246;SDS011;7726;48.820;9.248;2023-09-18T06:46:23;8.02;;;3.03;;
15246;SDS011;7726;48.820;9.248;2023-09-18T06:48:51;8.52;;;2.88;;
15246;SDS011;7726;48.820;9.248;2023-09-18T06:51:18;6.07;;;2.70;;
15246;SDS011;7726;48.820;9.248;2023-09-18T06:53:46;5.38;;;2.40;;
15246;SDS011;7726;48.820;9.248;2023-09-18T06:56:13;8.80;;;2.70;;
15246;SDS011;7726;48.820;9.248;2023-09-18T06:58:40;5.25;;;2.53;;
15246;SDS011;7726;48.820;9.248;2023-09-18T07:01:07;7.57;;;2.50;;
15246;SDS011;7726;48.820;9.248;2023-09-18T07:03:35;4.72;;;2.05;;
15246;SDS011;7726;48.820;9.248;2023-09-18T07:06:03;8.60;;;2.88;;
15246;SDS011;7726;48.820;9.248;2023-09-18T07:08:30;7.28;;;2.95;;
15246;SDS011;7726;48.820;9.248;2023-09-18T07:10:58;3.63;;;2.25;;
15246;SDS011;7726;48.820;9.248;2023-09-18T07:13:25;5.63;;;2.45;;
15246;SDS011;7726;48.820;9.248;2023-09-18T07:15:52;5.22;;;2.13;;
15246;SDS011;7726;48.820;9.248;2023-09-18T07:18:19;4.15;;;2.45;;
15246;SDS011;7726;48.820;9.248;2023-09-18T07:20:46;8.23;;;2.47;;
15246;SDS011;7726;48.820;9.248;2023-09-18T07:23:15;6.65;;;2.70;;
15246;SDS011;7726;48.820;9.248;2023-09-18T07:25:42;6.78;;;2.50;;
15246;SDS011;7726;48.820;9.248;2023-09-18T07:28:09;6.45;;;2.35;;
15246;SDS011;7726;48.820;9.248;2023-09-18T07:30:40;4.90;;;2.25;;
15246;SDS011;7726;48.820;9.248;2023-09-18T07:33:08;7.05;;;2.47;;
15246;SDS011;7726;48.820;9.248;2023-09-18T07:35:36;6.05;;;2.30;;
15246;SDS011;7726;48.820;9.248;2023-09-18T07:38:04;2.55;;;1.80;;
15246;SDS011;7726;48.820;9.248;2023-09-18T07:40:32;7.00;;;2.40;;
15246;SDS011;7726;48.820;9.248;2023-09-18T07:42:59;6.60;;;2.55;;
15246;SDS011;7726;48.820;9.248;2023-09-18T07:45:27;5.07;;;2.20;;
15246;SDS011;7726;48.820;9.248;2023-09-18T07:47:54;5.25;;;2.35;;
15246;SDS011;7726;48.820;9.248;2023-09-18T07:50:21;11.23;;;2.80;;
15246;SDS011;7726;48.820;9.248;2023-09-18T07:52:48;5.75;;;2.38;;
15246;SDS011;7726;48.820;9.248;2023-09-18T07:55:15;3.97;;;2.38;;
15246;SDS011;7726;48.820;9.248;2023-09-18T07:57:44;5.72;;;2.97;;
15246;SDS011;7726;48.820;9.248;2023-09-18T08:00:12;2.28;;;2.05;;
15246;SDS011;7726;48.820;9.248;2023-09-18T08:02:40;6.50;;;1.85;;
15246;SDS011;7726;48.820;9.248;2023-09-18T08:05:08;5.00;;;2.00;;
15246;SDS011;7726;48.820;9.248;2023-09-18T08:07:35;2.20;;;1.40;;
15246;SDS011;7726;48.820;9.248;2023-09-18T08:10:03;2.55;;;1.25;;
15246;SDS011;7726;48.820;9.248;2023-09-18T08:12:33;2.13;;;1.20;;
15246;SDS011;7726;48.820;9.248;2023-09-18T08:15:02;1.33;;;1.00;;
15246;SDS011;7726;48.820;9.248;2023-09-18T08:17:31;5.50;;;1.55;;
15246;SDS011;7726;48.820;9.248;2023-09-18T08:19:58;1.60;;;1.10;;
15246;SDS011;7726;48.820;9.248;2023-09-18T08:22:25;2.63;;;1.50;;
15246;SDS011;7726;48.820;9.248;2023-09-18T08:24:52;3.58;;;1.40;;
15246;SDS011;7726;48.820;9.248;2023-09-18T08:27:20;3.00;;;1.20;;
15246;SDS011;7726;48.820;9.248;2023-09-18T08:29:47;4.10;;;1.30;;
15246;SDS011;7726;48.820;9.248;2023-09-18T08:32:15;3.83;;;1.45;;
15246;SDS011;7726;48.820;9.248;2023-09-18T08:34:43;2.30;;;1.05;;
15246;SDS011;7726;48.820;9.248;2023-09-18T08:37:10;5.13;;;1.33;;
15246;SDS011;7726;48.820;9.248;2023-09-18T08:39:38;2.30;;;1.17;;
15246;SDS011;7726;48.820;9.248;2023-09-18T08:42:05;2.33;;;1.10;;
15246;SDS011;7726;48.820;9.248;2023-09-18T08:44:33;4.18;;;1.33;;
15246;SDS011;7726;48.820;9.248;2023-09-18T08:47:03;2.75;;;1.40;;
15246;SDS011;7726;48.820;9.248;2023-09-18T08:49:32;2.60;;;1.25;;
15246;SDS011;7726;48.820;9.248;2023-09-18T08:51:59;2.20;;;1.25;;
15246;SDS011;7726;48.820;9.248;2023-09-18T08:54:27;3.33;;;1.20;;
15246;SDS011;7726;48.820;9.248;2023-09-18T08:56:54;2.47;;;1.30;;
15246;SDS011;7726;48.820;9.248;2023-09-18T08:59:22;2.97;;;1.10;;
15246;SDS011;7726;48.820;9.248;2023-09-18T09:01:49;3.25;;;1.10;;
15246;SDS011;7726;48.820;9.248;2023-09-18T09:04:16;1.80;;;1.10;;
15246;SDS011;7726;48.820;9.248;2023-09-18T09:06:45;3.15;;;1.30;;
15246;SDS011;7726;48.820;9.248;2023-09-18T09:09:12;2.42;;;1.17;;
15246;SDS011;7726;48.820;9.248;2023-09-18T09:11:39;3.67;;;1.20;;
15246;SDS011;7726;48.820;9.248;2023-09-18T09:14:14;1.92;;;0.95;;
15246;SDS011;7726;48.820;9.248;2023-09-18T09:16:46;3.50;;;1.35;;
15246;SDS011;7726;48.820;9.248;2023-09-18T09:19:13;3.08;;;1.27;;
15246;SDS011;7726;48.820;9.248;2023-09-18T09:21:41;4.45;;;1.30;;
15246;SDS011;7726;48.820;9.248;2023-09-18T09:24:10;3.63;;;1.38;;
15246;SDS011;7726;48.820;9.248;2023-09-18T09:26:39;1.80;;;1.23;;
15246;SDS011;7726;48.820;9.248;2023-09-18T09:29:16;2.45;;;1.25;;
15246;SDS011;7726;48.820;9.248;2023-09-18T09:31:43;3.25;;;1.40;;
15246;SDS011;7726;48.820;9.248;2023-09-18T09:34:11;1.98;;;1.20;;
15246;SDS011;7726;48.820;9.248;2023-09-18T09:36:51;2.58;;;1.27;;
15246;SDS011;7726;48.820;9.248;2023-09-18T09:39:19;2.58;;;0.90;;
15246;SDS011;7726;48.820;9.248;2023-09-18T09:41:50;2.45;;;1.30;;
15246;SDS011;7726;48.820;9.248;2023-09-18T09:44:17;2.28;;;1.17;;
15246;SDS011;7726;48.820;9.248;2023-09-18T09:46:46;3.65;;;1.42;;
15246;SDS011;7726;48.820;9.248;2023-09-18T09:49:14;1.27;;;1.17;;
15246;SDS011;7726;48.820;9.248;2023-09-18T09:51:41;1.38;;;1.25;;
15246;SDS011;7726;48.820;9.248;2023-09-18T09:54:09;1.58;;;0.98;;
15246;SDS011;7726;48.820;9.248;2023-09-18T09:56:42;3.03;;;1.55;;
15246;SDS011;7726;48.820;9.248;2023-09-18T09:59:10;4.55;;;1.83;;
15246;SDS011;7726;48.820;9.248;2023-09-18T10:01:38;2.15;;;1.27;;
15246;SDS011;7726;48.820;9.248;2023-09-18T10:04:08;1.92;;;1.60;;
15246;SDS011;7726;48.820;9.248;2023-09-18T10:06:36;1.30;;;1.20;;
15246;SDS011;7726;48.820;9.248;2023-09-18T10:09:04;2.53;;;1.27;;
15246;SDS011;7726;48.820;9.248;2023-09-18T10:11:32;3.63;;;1.48;;
15246;SDS011;7726;48.820;9.248;2023-09-18T10:14:04;2.13;;;1.67;;
15246;SDS011;7726;48.820;9.248;2023-09-18T10:16:34;3.42;;;1.48;;
15246;SDS011;7726;48.820;9.248;2023-09-18T10:19:05;3.50;;;1.50;;
15246;SDS011;7726;48.820;9.248;2023-09-18T10:21:35;4.90;;;1.52;;
15246;SDS011;7726;48.820;9.248;2023-09-18T10:24:09;2.15;;;1.98;;
15246;SDS011;7726;48.820;9.248;2023-09-18T10:26:40;1.67;;;1.50;;
15246;SDS011;7726;48.820;9.248;2023-09-18T10:29:10;4.28;;;1.52;;
15246;SDS011;7726;48.820;9.248;2023-09-18T10:31:39;5.50;;;1.77;;
15246;SDS011;7726;48.820;9.248;2023-09-18T10:34:07;4.10;;;1.40;;
15246;SDS011;7726;48.820;9.248;2023-09-18T10:36:34;2.70;;;1.48;;
15246;SDS011;7726;48.820;9.248;2023-09-18T10:39:02;4.35;;;1.63;;
15246;SDS011;7726;48.820;9.248;2023-09-18T10:41:33;8.52;;;1.50;;
15246;SDS011;7726;48.820;9.248;2023-09-18T10:44:00;6.00;;;1.58;;
15246;SDS011;7726;48.820;9.248;2023-09-18T10:46:30;4.13;;;2.42;;
15246;SDS011;7726;48.820;9.248;2023-09-18T10:48:58;4.20;;;1.30;;
15246;SDS011;7726;48.820;9.248;2023-09-18T10:51:26;3.38;;;1.65;;
15246;SDS011;7726;48.820;9.248;2023-09-18T10:53:56;4.82;;;1.80;;
15246;SDS011;7726;48.820;9.248;2023-09-18T10:56:23;3.30;;;1.77;;
15246;SDS011;7726;48.820;9.248;2023-09-18T10:58:55;3.22;;;1.70;;
15246;SDS011;7726;48.820;9.248;2023-09-18T11:01:23;1.63;;;1.30;;
15246;SDS011;7726;48.820;9.248;2023-09-18T11:03:53;1.95;;;1.50;;
15246;SDS011;7726;48.820;9.248;2023-09-18T11:06:25;4.93;;;2.78;;
15246;SDS011;7726;48.820;9.248;2023-09-18T11:08:58;3.80;;;1.92;;
15246;SDS011;7726;48.820;9.248;2023-09-18T11:11:29;4.38;;;2.50;;
15246;SDS011;7726;48.820;9.248;2023-09-18T11:13:58;3.92;;;1.40;;
15246;SDS011;7726;48.820;9.248;2023-09-18T11:19:17;2.88;;;1.40;;
15246;SDS011;7726;48.820;9.248;2023-09-18T11:21:44;2.55;;;1.70;;
15246;SDS011;7726;48.820;9.248;2023-09-18T11:24:15;1.45;;;1.35;;
15246;SDS011;7726;48.820;9.248;2023-09-18T11:26:43;4.15;;;2.42;;
15246;SDS011;7726;48.820;9.248;2023-09-18T11:29:13;1.92;;;1.73;;
15246;SDS011;7726;48.820;9.248;2023-09-18T11:31:42;3.53;;;1.20;;
15246;SDS011;7726;48.820;9.248;2023-09-18T11:34:11;4.18;;;1.70;;
15246;SDS011;7726;48.820;9.248;2023-09-18T11:36:39;3.95;;;1.63;;
15246;SDS011;7726;48.820;9.248;2023-09-18T11:39:07;2.92;;;1.48;;
15246;SDS011;7726;48.820;9.248;2023-09-18T11:41:36;2.85;;;1.30;;
15246;SDS011;7726;48.820;9.248;2023-09-18T11:47:12;3.30;;;1.55;;
15246;SDS011;7726;48.820;9.248;2023-09-18T11:49:46;4.30;;;1.40;;
15246;SDS011;7726;48.820;9.248;2023-09-18T11:52:17;1.80;;;1.50;;
15246;SDS011;7726;48.820;9.248;2023-09-18T11:54:44;1.52;;;1.00;;
15246;SDS011;7726;48.820;9.248;2023-09-18T11:57:12;2.78;;;1.35;;
15246;SDS011;7726;48.820;9.248;2023-09-18T11:59:39;1.88;;;1.02;;
15246;SDS011;7726;48.820;9.248;2023-09-18T12:02:07;1.63;;;1.30;;
15246;SDS011;7726;48.820;9.248;2023-09-18T12:04:35;1.73;;;0.90;;
15246;SDS011;7726;48.820;9.248;2023-09-18T12:07:03;1.00;;;1.00;;
15246;SDS011;7726;48.820;9.248;2023-09-18T12:09:32;1.23;;;0.82;;
15246;SDS011;7726;48.820;9.248;2023-09-18T12:11:59;2.65;;;1.10;;
15246;SDS011;7726;48.820;9.248;2023-09-18T12:14:30;2.70;;;1.10;;
15246;SDS011;7726;48.820;9.248;2023-09-18T12:16:58;1.27;;;0.93;;
15246;SDS011;7726;48.820;9.248;2023-09-18T12:19:26;2.60;;;1.05;;
15246;SDS011;7726;48.820;9.248;2023-09-18T12:21:54;1.92;;;1.00;;
15246;SDS011;7726;48.820;9.248;2023-09-18T12:24:21;5.20;;;1.15;;
15246;SDS011;7726;48.820;9.248;2023-09-18T12:26:49;3.10;;;1.00;;
15246;SDS011;7726;48.820;9.248;2023-09-18T12:29:17;2.40;;;1.20;;
15246;SDS011;7726;48.820;9.248;2023-09-18T12:31:45;1.42;;;1.17;;
15246;SDS011;7726;48.820;9.248;2023-09-18T12:34:15;1.23;;;1.13;;
15246;SDS011;7726;48.820;9.248;2023-09-18T12:36:43;3.72;;;1.00;;
15246;SDS011;7726;48.820;9.248;2023-09-18T12:39:12;1.02;;;0.90;;
15246;SDS011;7726;48.820;9.248;2023-09-18T12:41:41;3.08;;;1.02;;
15246;SDS011;7726;48.820;9.248;2023-09-18T12:44:09;4.40;;;1.30;;
15246;SDS011;7726;48.820;9.248;2023-09-18T12:46:37;1.98;;;1.20;;
15246;SDS011;7726;48.820;9.248;2023-09-18T12:49:15;2.00;;;1.35;;
15246;SDS011;7726;48.820;9.248;2023-09-18T12:51:42;1.92;;;1.58;;
15246;SDS011;7726;48.820;9.248;2023-09-18T12:54:11;2.45;;;1.40;;
15246;SDS011;7726;48.820;9.248;2023-09-18T12:56:41;1.20;;;1.10;;
15246;SDS011;7726;48.820;9.248;2023-09-18T12:59:10;2.95;;;1.60;;
15246;SDS011;7726;48.820;9.248;2023-09-18T13:01:38;3.00;;;1.63;;
15246;SDS011;7726;48.820;9.248;2023-09-18T13:04:05;2.83;;;1.27;;
15246;SDS011;7726;48.820;9.248;2023-09-18T13:06:32;1.98;;;1.30;;
15246;SDS011;7726;48.820;9.248;2023-09-18T13:09:14;3.17;;;1.23;;
15246;SDS011;7726;48.820;9.248;2023-09-18T13:11:51;1.90;;;1.30;;
15246;SDS011;7726;48.820;9.248;2023-09-18T13:14:20;4.10;;;1.40;;
15246;SDS011;7726;48.820;9.248;2023-09-18T13:16:47;2.28;;;1.25;;
15246;SDS011;7726;48.820;9.248;2023-09-18T13:19:14;1.80;;;1.30;;
15246;SDS011;7726;48.820;9.248;2023-09-18T13:21:46;3.40;;;1.30;;
15246;SDS011;7726;48.820;9.248;2023-09-18T13:24:23;2.33;;;1.42;;
15246;SDS011;7726;48.820;9.248;2023-09-18T13:26:52;1.85;;;1.50;;
15246;SDS011;7726;48.820;9.248;2023-09-18T13:29:20;1.95;;;1.17;;
15246;SDS011;7726;48.820;9.248;2023-09-18T13:31:47;1.83;;;1.73;;
15246;SDS011;7726;48.820;9.248;2023-09-18T13:34:15;3.38;;;1.50;;
15246;SDS011;7726;48.820;9.248;2023-09-18T13:36:43;2.78;;;1.67;;
15246;SDS011;7726;48.820;9.248;2023-09-18T13:39:10;1.50;;;1.23;;
15246;SDS011;7726;48.820;9.248;2023-09-18T13:41:37;2.45;;;1.30;;
15246;SDS011;7726;48.820;9.248;2023-09-18T13:44:06;2.97;;;1.50;;
15246;SDS011;7726;48.820;9.248;2023-09-18T13:46:34;2.90;;;1.20;;
15246;SDS011;7726;48.820;9.248;2023-09-18T13:49:02;3.58;;;1.42;;
15246;SDS011;7726;48.820;9.248;2023-09-18T13:51:29;4.47;;;1.75;;
15246;SDS011;7726;48.820;9.248;2023-09-18T13:53:57;2.72;;;1.30;;
15246;SDS011;7726;48.820;9.248;2023-09-18T13:56:24;2.53;;;1.45;;
15246;SDS011;7726;48.820;9.248;2023-09-18T13:58:52;1.27;;;0.98;;
15246;SDS011;7726;48.820;9.248;2023-09-18T14:01:20;3.08;;;1.15;;
15246;SDS011;7726;48.820;9.248;2023-09-18T14:03:49;3.05;;;1.15;;
15246;SDS011;7726;48.820;9.248;2023-09-18T14:06:16;2.53;;;1.30;;
15246;SDS011;7726;48.820;9.248;2023-09-18T14:08:43;1.25;;;1.10;;
15246;SDS011;7726;48.820;9.248;2023-09-18T14:11:10;2.75;;;1.20;;
15246;SDS011;7726;48.820;9.248;2023-09-18T14:13:37;1.45;;;1.08;;
15246;SDS011;7726;48.820;9.248;2023-09-18T14:16:06;2.78;;;1.20;;
15246;SDS011;7726;48.820;9.248;2023-09-18T14:18:35;2.35;;;0.90;;
15246;SDS011;7726;48.820;9.248;2023-09-18T14:21:03;1.83;;;1.05;;
15246;SDS011;7726;48.820;9.248;2023-09-18T14:23:31;1.65;;;1.30;;
15246;SDS011;7726;48.820;9.248;2023-09-18T14:26:00;2.40;;;1.27;;
15246;SDS011;7726;48.820;9.248;2023-09-18T14:28:27;1.15;;;1.02;;
15246;SDS011;7726;48.820;9.248;2023-09-18T14:30:54;2.63;;;1.35;;
15246;SDS011;7726;48.820;9.248;2023-09-18T14:33:21;1.20;;;1.00;;
15246;SDS011;7726;48.820;9.248;2023-09-18T14:35:48;2.42;;;1.10;;
15246;SDS011;7726;48.820;9.248;2023-09-18T14:38:17;2.45;;;1.30;;
15246;SDS011;7726;48.820;9.248;2023-09-18T14:40:44;1.33;;;1.00;;
15246;SDS011;7726;48.820;9.248;2023-09-18T14:43:12;1.45;;;1.00;;
15246;SDS011;7726;48.820;9.248;2023-09-18T14:45:39;1.05;;;1.02;;
15246;SDS011;7726;48.820;9.248;2023-09-18T14:48:06;2.03;;;0.90;;
15246;SDS011;7726;48.820;9.248;2023-09-18T14:50:33;1.95;;;1.40;;
15246;SDS011;7726;48.820;9.248;2023-09-18T14:53:00;1.17;;;0.85;;
15246;SDS011;7726;48.820;9.248;2023-09-18T14:55:30;1.52;;;1.00;;
15246;SDS011;7726;48.820;9.248;2023-09-18T14:57:57;2.30;;;1.10;;
15246;SDS011;7726;48.820;9.248;2023-09-18T15:00:24;2.58;;;1.35;;
15246;SDS011;7726;48.820;9.248;2023-09-18T15:02:51;2.45;;;1.20;;
15246;SDS011;7726;48.820;9.248;2023-09-18T15:05:19;2.28;;;1.15;;
15246;SDS011;7726;48.820;9.248;2023-09-18T15:07:46;2.25;;;1.13;;
15246;SDS011;7726;48.820;9.248;2023-09-18T15:10:13;1.75;;;1.10;;
15246;SDS011;7726;48.820;9.248;2023-09-18T15:12:41;2.58;;;1.08;;